createdAt,value
2023-03-13T00:01:28.725Z,7.72
2023-03-13T00:03:55.759Z,11.88
2023-03-13T00:06:25.637Z,6.30
2023-03-13T00:08:52.818Z,7.00
2023-03-13T00:11:19.783Z,7.88
2023-03-13T00:13:46.585Z,7.68
2023-03-13T00:16:16.007Z,8.63
2023-03-13T00:18:48.190Z,7.88
2023-03-13T00:21:15.742Z,10.82
2023-03-13T00:23:42.523Z,11.70
2023-03-13T00:26:12.323Z,10.80
2023-03-13T00:28:40.637Z,9.10
2023-03-13T00:31:16.504Z,9.93
2023-03-13T00:33:48.559Z,10.50
2023-03-13T00:36:23.266Z,11.38
2023-03-13T00:38:50.947Z,8.82
2023-03-13T00:41:21.042Z,11.15
2023-03-13T00:43:49.234Z,9.48
2023-03-13T00:46:18.550Z,11.25
2023-03-13T00:48:46.490Z,10.43
2023-03-13T00:51:15.358Z,14.00
2023-03-13T00:53:43.147Z,8.45
2023-03-13T00:56:12.558Z,6.68
2023-03-13T00:58:41.672Z,7.55
2023-03-13T01:01:15.802Z,9.00
2023-03-13T01:03:44.458Z,8.30
2023-03-13T01:06:14.258Z,9.15
2023-03-13T01:08:41.235Z,6.25
2023-03-13T01:11:14.024Z,9.95
2023-03-13T01:13:41.743Z,7.75
2023-03-13T01:16:16.917Z,8.52
2023-03-13T01:18:46.956Z,8.38
2023-03-13T01:21:14.803Z,6.97
2023-03-13T01:23:41.844Z,9.02
2023-03-13T01:26:10.198Z,7.53
2023-03-13T01:28:38.252Z,7.50
2023-03-13T01:31:18.753Z,7.65
2023-03-13T01:33:47.743Z,7.53
2023-03-13T01:36:16.483Z,7.53
2023-03-13T01:38:43.820Z,9.10
2023-03-13T01:41:12.529Z,5.50
2023-03-13T01:43:39.798Z,7.43
2023-03-13T01:46:25.409Z,6.35
2023-03-13T01:49:34.457Z,5.72
2023-03-13T01:52:19.568Z,4.70
2023-03-13T01:55:14.305Z,5.03
2023-03-13T01:57:47.653Z,7.47
2023-03-13T02:00:19.991Z,4.63
2023-03-13T02:02:52.560Z,5.45
2023-03-13T02:05:22.539Z,4.05
2023-03-13T02:08:03.310Z,6.22
2023-03-13T02:10:34.075Z,6.15
2023-03-13T02:13:02.597Z,5.80
2023-03-13T02:15:31.370Z,3.88
2023-03-13T02:17:58.392Z,5.50
2023-03-13T02:20:25.517Z,4.13
2023-03-13T02:23:20.426Z,7.03
2023-03-13T02:25:53.703Z,3.47
2023-03-13T02:28:29.266Z,4.80
2023-03-13T02:30:58.710Z,4.18
2023-03-13T02:33:30.209Z,5.22
2023-03-13T02:35:59.420Z,3.65
2023-03-13T02:38:29.463Z,5.07
2023-03-13T02:40:57.966Z,4.20
2023-03-13T02:43:31.021Z,5.45
2023-03-13T02:46:09.778Z,4.32
2023-03-13T02:48:53.344Z,8.30
2023-03-13T02:51:40.483Z,7.80
2023-03-13T02:54:13.511Z,4.88
2023-03-13T02:56:42.784Z,4.28
2023-03-13T02:59:10.935Z,5.20
2023-03-13T03:01:40.957Z,3.25
2023-03-13T03:04:07.814Z,7.78
2023-03-13T03:06:34.776Z,4.45
2023-03-13T03:09:04.078Z,4.05
2023-03-13T03:11:34.283Z,6.07
2023-03-13T03:14:05.917Z,4.43
2023-03-13T03:16:38.085Z,5.20
2023-03-13T03:19:06.838Z,6.80
2023-03-13T03:21:34.596Z,6.93
2023-03-13T03:24:01.990Z,5.20
2023-03-13T03:26:28.906Z,4.90
2023-03-13T03:28:55.985Z,6.65
2023-03-13T03:31:23.121Z,3.35
2023-03-13T03:33:51.033Z,4.10
2023-03-13T03:36:21.797Z,2.67
2023-03-13T03:38:49.128Z,5.13
2023-03-13T03:41:19.263Z,6.10
2023-03-13T03:43:47.508Z,5.05
2023-03-13T03:46:17.462Z,4.45
2023-03-13T03:48:44.594Z,5.32
2023-03-13T03:51:13.100Z,9.70
2023-03-13T03:53:42.679Z,5.30
2023-03-13T03:56:09.770Z,4.93
2023-03-13T03:58:41.295Z,4.32
2023-03-13T04:01:34.484Z,6.10
2023-03-13T04:04:03.221Z,7.13
2023-03-13T04:06:30.852Z,8.00
2023-03-13T04:08:58.057Z,3.97
2023-03-13T04:11:27.101Z,3.55
2023-03-13T04:13:55.680Z,4.90
2023-03-13T04:16:23.055Z,4.80
2023-03-13T04:18:50.524Z,3.13
2023-03-13T04:21:18.369Z,6.35
2023-03-13T04:23:52.728Z,3.55
2023-03-13T04:26:20.347Z,2.97
2023-03-13T04:28:49.541Z,2.13
2023-03-13T04:31:20.339Z,4.97
2023-03-13T04:34:09.706Z,4.30
2023-03-13T04:36:52.797Z,2.78
2023-03-13T04:39:38.158Z,2.58
2023-03-13T04:42:24.172Z,0.82
2023-03-13T04:45:12.983Z,2.55
2023-03-13T04:47:49.470Z,1.42
2023-03-13T04:50:25.346Z,3.92
2023-03-13T04:53:10.509Z,2.88
2023-03-13T04:55:56.021Z,2.67
2023-03-13T04:58:49.007Z,2.00
2023-03-13T05:01:34.375Z,2.92
2023-03-13T05:04:33.481Z,2.72
2023-03-13T05:07:18.840Z,1.20
2023-03-13T05:10:11.803Z,2.47
2023-03-13T05:12:57.119Z,0.63
2023-03-13T05:15:47.262Z,1.80
2023-03-13T05:18:43.438Z,1.00
2023-03-13T05:21:39.951Z,1.02
2023-03-13T05:24:23.897Z,2.57
2023-03-13T05:26:50.854Z,3.28
2023-03-13T05:29:34.481Z,1.65
2023-03-13T05:32:04.314Z,1.83
2023-03-13T05:35:09.704Z,1.23
2023-03-13T05:38:00.578Z,1.85
2023-03-13T05:40:42.352Z,1.63
2023-03-13T05:43:27.993Z,1.17
2023-03-13T05:46:27.340Z,1.27
2023-03-13T05:49:11.026Z,1.20
2023-03-13T05:52:04.398Z,1.48
2023-03-13T05:54:37.202Z,0.98
2023-03-13T05:57:18.838Z,2.50
2023-03-13T05:59:55.550Z,1.42
2023-03-13T06:02:44.427Z,1.63
2023-03-13T06:05:16.097Z,3.63
2023-03-13T06:07:42.929Z,0.65
2023-03-13T06:10:10.589Z,1.33
2023-03-13T06:12:37.470Z,1.05
2023-03-13T06:15:07.317Z,1.70
2023-03-13T06:17:55.212Z,1.00
2023-03-13T06:20:22.593Z,2.92
2023-03-13T06:22:49.406Z,1.42
2023-03-13T06:25:16.349Z,1.88
2023-03-13T06:27:43.148Z,0.77
2023-03-13T06:30:11.217Z,1.05
2023-03-13T06:32:38.264Z,1.75
2023-03-13T06:35:05.956Z,0.60
2023-03-13T06:37:33.763Z,1.80
2023-03-13T06:40:00.617Z,1.10
2023-03-13T06:42:27.500Z,1.65
2023-03-13T06:44:54.295Z,1.92
2023-03-13T06:47:21.141Z,1.13
2023-03-13T06:49:48.027Z,0.88
2023-03-13T06:52:14.853Z,2.20
2023-03-13T06:54:42.278Z,1.88
2023-03-13T06:57:09.174Z,0.95
2023-03-13T06:59:36.072Z,1.05
2023-03-13T07:02:02.881Z,1.10
2023-03-13T07:04:29.665Z,1.10
2023-03-13T07:06:56.647Z,0.70
2023-03-13T07:09:23.471Z,1.33
2023-03-13T07:11:50.309Z,1.02
2023-03-13T07:14:17.899Z,1.58
2023-03-13T07:16:46.209Z,0.95
2023-03-13T07:19:13.674Z,1.42
2023-03-13T07:21:40.724Z,0.63
2023-03-13T07:24:10.341Z,0.40
2023-03-13T07:26:38.510Z,1.25
2023-03-13T07:29:05.549Z,0.57
2023-03-13T07:31:34.064Z,0.60
2023-03-13T07:34:01.194Z,1.10
2023-03-13T07:36:28.679Z,2.25
2023-03-13T07:38:55.794Z,0.70
2023-03-13T07:41:22.683Z,1.50
2023-03-13T07:43:49.886Z,1.20
2023-03-13T07:46:18.840Z,1.65
2023-03-13T07:48:46.825Z,0.80
2023-03-13T07:51:25.278Z,1.50
2023-03-13T07:53:57.242Z,0.60
2023-03-13T07:56:24.697Z,1.27
2023-03-13T07:58:52.307Z,1.67
2023-03-13T08:01:24.152Z,0.70
2023-03-13T08:03:53.040Z,1.60
2023-03-13T08:06:23.435Z,1.15
2023-03-13T08:08:51.311Z,0.60
2023-03-13T08:11:21.253Z,0.95
2023-03-13T08:13:50.137Z,1.08
2023-03-13T08:16:21.740Z,0.50
2023-03-13T08:18:53.972Z,1.75
2023-03-13T08:21:26.396Z,0.70
2023-03-13T08:23:58.237Z,1.23
2023-03-13T08:26:29.063Z,0.68
2023-03-13T08:28:58.708Z,1.45
2023-03-13T08:31:29.156Z,2.00
2023-03-13T08:33:56.077Z,1.55
2023-03-13T08:36:28.822Z,1.10
2023-03-13T08:38:58.356Z,2.40
2023-03-13T08:41:31.486Z,2.15
2023-03-13T08:43:58.740Z,1.73
2023-03-13T08:46:26.535Z,0.80
2023-03-13T08:48:55.125Z,1.70
2023-03-13T08:51:27.777Z,0.60
2023-03-13T08:53:58.494Z,1.60
2023-03-13T08:56:28.592Z,1.85
2023-03-13T08:58:58.327Z,1.55
2023-03-13T09:01:28.107Z,1.50
2023-03-13T09:03:55.760Z,1.95
2023-03-13T09:06:23.245Z,0.73
2023-03-13T09:08:50.133Z,1.10
2023-03-13T09:11:21.628Z,2.50
2023-03-13T09:13:50.943Z,2.45
2023-03-13T09:16:20.115Z,2.97
2023-03-13T09:18:48.168Z,1.25
2023-03-13T09:21:17.990Z,0.80
2023-03-13T09:23:45.076Z,2.08
2023-03-13T09:26:12.955Z,0.70
2023-03-13T09:28:42.062Z,1.23
2023-03-13T09:31:11.384Z,1.48
2023-03-13T09:33:39.187Z,1.02
2023-03-13T09:36:06.959Z,0.82
2023-03-13T09:38:34.318Z,0.80
2023-03-13T09:41:37.842Z,1.15
2023-03-13T09:44:27.369Z,1.95
2023-03-13T09:47:07.189Z,0.85
2023-03-13T09:49:47.858Z,1.45
2023-03-13T09:52:22.270Z,0.80
2023-03-13T09:57:25.184Z,0.80
2023-03-13T09:59:58.693Z,1.75
2023-03-13T10:02:36.881Z,1.70
2023-03-13T10:05:09.637Z,2.85
2023-03-13T10:07:37.215Z,2.88
2023-03-13T10:10:08.023Z,1.00
2023-03-13T10:12:48.584Z,0.98
2023-03-13T10:15:37.350Z,1.98
2023-03-13T10:18:21.620Z,0.95
2023-03-13T10:20:56.812Z,0.80
2023-03-13T10:23:32.690Z,1.38
2023-03-13T10:25:59.488Z,4.30
2023-03-13T10:28:26.664Z,2.17
2023-03-13T10:31:34.586Z,3.10
2023-03-13T10:34:13.028Z,1.75
2023-03-13T10:36:45.716Z,1.50
2023-03-13T10:39:24.350Z,2.65
2023-03-13T10:41:57.313Z,2.35
2023-03-13T10:44:32.124Z,3.05
2023-03-13T10:47:02.530Z,1.70
2023-03-13T10:49:31.321Z,1.27
2023-03-13T10:52:06.501Z,3.08
2023-03-13T10:54:36.387Z,1.55
2023-03-13T10:57:18.243Z,1.38
2023-03-13T10:59:51.624Z,0.93
2023-03-13T11:02:35.359Z,1.88
2023-03-13T11:05:32.795Z,1.40
2023-03-13T11:08:12.904Z,1.17
2023-03-13T11:10:57.392Z,1.98
2023-03-13T11:13:44.006Z,0.82
2023-03-13T11:16:43.265Z,1.33
2023-03-13T11:19:25.078Z,2.03
2023-03-13T11:22:19.647Z,2.78
2023-03-13T11:25:13.265Z,0.85
2023-03-13T11:27:46.312Z,2.28
2023-03-13T11:30:34.199Z,3.35
2023-03-13T11:33:05.148Z,0.90
2023-03-13T11:36:00.660Z,2.78
2023-03-13T11:38:36.561Z,2.97
2023-03-13T11:41:37.356Z,1.30
2023-03-13T11:44:42.513Z,1.20
2023-03-13T11:47:41.891Z,2.40
2023-03-13T11:50:45.602Z,1.30
2023-03-13T11:53:40.829Z,1.67
2023-03-13T11:56:13.280Z,0.90
2023-03-13T11:59:06.250Z,1.70
2023-03-13T12:01:39.921Z,2.58
2023-03-13T12:04:50.309Z,1.20
2023-03-13T12:07:35.976Z,1.15
2023-03-13T12:10:09.810Z,1.77
2023-03-13T12:12:39.724Z,1.33
2023-03-13T12:15:22.100Z,1.40
2023-03-13T12:17:56.316Z,2.00
2023-03-13T12:20:41.267Z,2.17
2023-03-13T12:23:24.394Z,2.17
2023-03-13T12:26:12.750Z,2.92
2023-03-13T12:29:07.613Z,1.80
2023-03-13T12:31:44.414Z,1.95
2023-03-13T12:34:27.535Z,1.52
2023-03-13T12:37:07.456Z,0.80
2023-03-13T12:39:58.014Z,1.75
2023-03-13T12:42:30.081Z,1.98
2023-03-13T12:44:58.900Z,1.10
2023-03-13T12:47:33.066Z,1.95
2023-03-13T12:49:59.841Z,1.30
2023-03-13T12:53:08.032Z,1.45
2023-03-13T12:55:53.358Z,1.40
2023-03-13T12:58:48.846Z,1.10
2023-03-13T13:01:27.875Z,1.77
2023-03-13T13:04:07.364Z,1.20
2023-03-13T13:06:55.852Z,1.20
2023-03-13T13:09:24.601Z,2.00
2023-03-13T13:11:52.617Z,1.45
2023-03-13T13:14:19.415Z,1.08
2023-03-13T13:17:16.416Z,1.02
2023-03-13T13:19:44.778Z,1.60
2023-03-13T13:22:39.572Z,1.48
2023-03-13T13:25:18.403Z,0.95
2023-03-13T13:27:45.184Z,2.83
2023-03-13T13:30:32.679Z,1.23
2023-03-13T13:33:18.672Z,0.80
2023-03-13T13:35:46.618Z,2.45
2023-03-13T13:38:19.813Z,0.82
2023-03-13T13:40:58.854Z,0.90
2023-03-13T13:43:27.179Z,0.80
2023-03-13T13:46:01.100Z,1.58
2023-03-13T13:48:32.903Z,1.83
2023-03-13T13:51:11.056Z,0.85
2023-03-13T13:54:00.345Z,0.95
2023-03-13T13:56:41.392Z,3.22
2023-03-13T13:59:30.865Z,1.55
2023-03-13T14:02:25.454Z,0.80
2023-03-13T14:05:13.890Z,1.10
2023-03-13T14:07:40.693Z,1.92
2023-03-13T14:10:32.694Z,2.08
2023-03-13T14:13:01.235Z,1.45
2023-03-13T14:15:33.430Z,1.20
2023-03-13T14:18:22.492Z,0.82
2023-03-13T14:21:14.003Z,1.52
2023-03-13T14:23:43.548Z,1.08
2023-03-13T14:26:18.295Z,2.35
2023-03-13T14:28:54.388Z,2.22
2023-03-13T14:31:23.822Z,0.80
2023-03-13T14:33:50.877Z,1.50
2023-03-13T14:36:17.908Z,1.27
2023-03-13T14:38:56.634Z,1.13
2023-03-13T14:41:46.246Z,2.25
2023-03-13T14:44:28.885Z,0.80
2023-03-13T14:47:04.134Z,1.33
2023-03-13T14:49:32.686Z,1.10
2023-03-13T14:52:05.735Z,0.82
2023-03-13T14:54:38.060Z,3.47
2023-03-13T14:57:16.230Z,0.80
2023-03-13T14:59:44.105Z,1.17
2023-03-13T15:02:15.259Z,1.02
2023-03-13T15:04:52.660Z,0.80
2023-03-13T15:07:20.459Z,1.33
2023-03-13T15:09:49.057Z,1.38
2023-03-13T15:12:22.771Z,1.10
2023-03-13T15:14:52.373Z,0.60
2023-03-13T15:17:24.637Z,0.82
2023-03-13T15:19:57.044Z,1.08
2023-03-13T15:22:39.534Z,1.10
2023-03-13T15:25:21.127Z,0.98
2023-03-13T15:27:48.770Z,0.80
2023-03-13T15:30:21.197Z,1.30
2023-03-13T15:32:48.805Z,1.73
2023-03-13T15:35:25.832Z,1.13
2023-03-13T15:37:52.712Z,0.90
2023-03-13T15:40:20.212Z,1.45
2023-03-13T15:42:47.405Z,1.08
2023-03-13T15:45:14.233Z,0.93
2023-03-13T15:47:41.026Z,3.10
2023-03-13T15:50:19.399Z,6.72
2023-03-13T15:52:46.403Z,5.22
2023-03-13T15:55:13.776Z,6.78
2023-03-13T15:57:50.348Z,6.00
2023-03-13T16:00:26.418Z,3.58
2023-03-13T16:02:53.422Z,3.58
2023-03-13T16:05:20.342Z,6.53
2023-03-13T16:07:47.419Z,6.55
2023-03-13T16:10:24.976Z,3.25
2023-03-13T16:12:52.788Z,7.40
2023-03-13T16:15:20.089Z,6.55
2023-03-13T16:17:46.927Z,1.77
2023-03-13T16:20:17.226Z,3.42
2023-03-13T16:22:44.497Z,4.53
2023-03-13T16:25:11.675Z,2.65
2023-03-13T16:27:40.372Z,3.50
2023-03-13T16:30:16.867Z,4.28
2023-03-13T16:32:44.019Z,3.92
2023-03-13T16:35:11.153Z,4.93
2023-03-13T16:37:37.996Z,3.28
2023-03-13T16:40:17.749Z,2.30
2023-03-13T16:42:44.927Z,2.15
2023-03-13T16:45:13.430Z,2.58
2023-03-13T16:47:42.095Z,3.00
2023-03-13T16:50:21.458Z,2.75
2023-03-13T16:52:48.534Z,1.50
2023-03-13T16:55:15.767Z,1.55
2023-03-13T16:57:42.772Z,3.40
2023-03-13T17:00:17.664Z,1.13
2023-03-13T17:02:44.983Z,4.47
2023-03-13T17:05:15.686Z,1.20
2023-03-13T17:07:48.115Z,2.28
2023-03-13T17:10:27.649Z,2.80
2023-03-13T17:12:54.560Z,1.98
2023-03-13T17:15:22.230Z,1.95
2023-03-13T17:17:54.175Z,2.22
2023-03-13T17:20:27.142Z,3.42
2023-03-13T17:22:56.228Z,0.93
2023-03-13T17:25:24.377Z,0.90
2023-03-13T17:27:51.322Z,0.70
2023-03-13T17:30:30.421Z,2.08
2023-03-13T17:32:59.142Z,0.80
2023-03-13T17:35:26.298Z,1.38
2023-03-13T17:37:53.174Z,2.47
2023-03-13T17:40:23.547Z,1.40
2023-03-13T17:42:50.893Z,1.48
2023-03-13T17:45:18.973Z,1.60
2023-03-13T17:47:46.420Z,2.42
2023-03-13T17:50:20.641Z,2.17
2023-03-13T17:52:47.883Z,0.85
2023-03-13T17:55:14.864Z,2.60
2023-03-13T17:57:42.043Z,2.55
2023-03-13T18:00:38.360Z,1.58
2023-03-13T18:03:05.246Z,1.05
2023-03-13T18:05:32.444Z,1.70
2023-03-13T18:07:59.556Z,0.75
2023-03-13T18:10:28.855Z,1.45
2023-03-13T18:12:56.854Z,1.15
2023-03-13T18:15:25.814Z,0.60
2023-03-13T18:17:52.859Z,0.70
2023-03-13T18:20:25.868Z,1.00
2023-03-13T18:22:53.951Z,0.70
2023-03-13T18:25:21.533Z,1.55
2023-03-13T18:27:48.502Z,3.40
2023-03-13T18:30:18.364Z,2.28
2023-03-13T18:32:46.059Z,2.28
2023-03-13T18:35:13.906Z,1.45
2023-03-13T18:37:42.924Z,2.58
2023-03-13T18:40:25.362Z,0.95
2023-03-13T18:42:52.393Z,0.88
2023-03-13T18:45:22.419Z,2.13
2023-03-13T18:47:49.657Z,2.38
2023-03-13T18:50:28.094Z,8.60
2023-03-13T18:52:57.590Z,3.38
2023-03-13T18:55:27.104Z,1.88
2023-03-13T18:57:55.409Z,3.13
2023-03-13T19:00:27.188Z,3.15
2023-03-13T19:02:54.546Z,2.45
2023-03-13T19:05:22.078Z,2.17
2023-03-13T19:07:49.447Z,1.50
2023-03-13T19:10:31.321Z,1.48
2023-03-13T19:12:58.562Z,4.55
2023-03-13T19:15:30.240Z,4.93
2023-03-13T19:18:02.662Z,4.00
2023-03-13T19:20:30.445Z,2.45
2023-03-13T19:23:00.583Z,3.05
2023-03-13T19:25:29.468Z,2.10
2023-03-13T19:27:56.391Z,2.15
2023-03-13T19:30:25.465Z,3.88
2023-03-13T19:32:52.779Z,2.80
2023-03-13T19:35:21.947Z,1.73
2023-03-13T19:37:49.324Z,2.15
2023-03-13T19:40:22.150Z,1.25
2023-03-13T19:42:49.106Z,0.73
2023-03-13T19:45:20.543Z,1.23
2023-03-13T19:47:48.236Z,2.88
2023-03-13T19:50:22.459Z,4.68
2023-03-13T19:52:49.458Z,0.80
2023-03-13T19:55:16.476Z,1.38
2023-03-13T19:57:43.397Z,0.90
2023-03-13T20:00:23.456Z,0.70
2023-03-13T20:02:52.693Z,1.35
2023-03-13T20:05:19.602Z,0.90
2023-03-13T20:07:47.643Z,0.70
2023-03-13T20:10:14.827Z,1.55
2023-03-13T20:12:41.730Z,0.63
2023-03-13T20:15:09.329Z,0.95
2023-03-13T20:17:36.159Z,1.55
2023-03-13T20:20:04.603Z,0.95
2023-03-13T20:22:31.460Z,1.02
2023-03-13T20:24:58.258Z,0.40
2023-03-13T20:27:25.154Z,0.55
2023-03-13T20:29:52.036Z,0.85
2023-03-13T20:32:19.000Z,0.50
2023-03-13T20:34:45.975Z,1.15
2023-03-13T20:37:12.836Z,1.13
2023-03-13T20:39:39.970Z,0.93
2023-03-13T20:42:08.456Z,0.50
2023-03-13T20:44:35.452Z,0.63
2023-03-13T20:47:02.242Z,0.70
2023-03-13T20:49:29.140Z,0.60
2023-03-13T20:51:56.001Z,0.90
2023-03-13T20:54:22.852Z,0.80
2023-03-13T20:56:49.685Z,2.30
2023-03-13T20:59:16.558Z,1.05
2023-03-13T21:01:44.058Z,0.60
2023-03-13T21:04:10.956Z,0.60
2023-03-13T21:06:37.813Z,1.15
2023-03-13T21:09:05.369Z,0.73
2023-03-13T21:11:33.735Z,0.85
2023-03-13T21:14:00.708Z,0.75
2023-03-13T21:16:27.682Z,1.30
2023-03-13T21:18:54.500Z,1.25
2023-03-13T21:21:22.432Z,0.93
2023-03-13T21:23:52.213Z,1.40
2023-03-13T21:26:19.455Z,1.00
2023-03-13T21:28:46.299Z,0.45
2023-03-13T21:31:15.705Z,0.40
2023-03-13T21:33:44.715Z,0.82
2023-03-13T21:36:13.073Z,0.35
2023-03-13T21:38:40.022Z,1.15
2023-03-13T21:41:09.038Z,0.50
2023-03-13T21:43:37.394Z,0.57
2023-03-13T21:46:04.526Z,0.93
2023-03-13T21:48:31.460Z,0.30
2023-03-13T21:50:58.301Z,0.60
2023-03-13T21:53:25.176Z,1.35
2023-03-13T21:55:52.479Z,0.70
2023-03-13T21:58:19.455Z,0.30
2023-03-13T22:00:46.325Z,0.40
2023-03-13T22:03:13.542Z,0.50
2023-03-13T22:05:44.296Z,0.70
2023-03-13T22:08:11.801Z,0.40
2023-03-13T22:10:39.364Z,0.40
2023-03-13T22:13:07.653Z,0.63
2023-03-13T22:15:35.074Z,0.75
2023-03-13T22:18:01.941Z,1.10
2023-03-13T22:20:28.839Z,0.65
2023-03-13T22:22:55.731Z,0.63
2023-03-13T22:25:22.629Z,0.80
2023-03-13T22:27:49.419Z,1.48
2023-03-13T22:30:16.422Z,0.38
2023-03-13T22:32:43.320Z,0.40
2023-03-13T22:35:10.432Z,1.15
2023-03-13T22:37:37.445Z,0.50
2023-03-13T22:40:07.352Z,0.55
2023-03-13T22:42:34.276Z,0.57
2023-03-13T22:45:01.150Z,0.75
2023-03-13T22:47:28.163Z,1.45
2023-03-13T22:49:55.054Z,0.80
2023-03-13T22:52:23.337Z,0.60
2023-03-13T22:54:50.184Z,0.63
2023-03-13T22:57:16.979Z,0.77
2023-03-13T22:59:43.804Z,0.73
2023-03-13T23:02:10.605Z,1.02
2023-03-13T23:04:37.406Z,0.95
2023-03-13T23:07:04.260Z,1.13
2023-03-13T23:09:31.232Z,3.45
2023-03-13T23:11:58.166Z,2.75
2023-03-13T23:14:29.018Z,1.83
2023-03-13T23:16:56.603Z,0.93
2023-03-13T23:19:23.834Z,0.50
2023-03-13T23:21:50.613Z,1.05
2023-03-13T23:24:18.564Z,1.05
2023-03-13T23:26:45.387Z,1.17
2023-03-13T23:29:12.305Z,0.77
2023-03-13T23:31:39.098Z,0.75
2023-03-13T23:34:05.896Z,0.75
2023-03-13T23:36:32.740Z,0.85
2023-03-13T23:38:59.727Z,0.93
2023-03-13T23:41:26.646Z,1.00
2023-03-13T23:43:53.524Z,0.80
2023-03-13T23:46:22.831Z,0.80
2023-03-13T23:48:53.635Z,0.60
2023-03-13T23:51:20.478Z,2.42
2023-03-13T23:53:47.586Z,1.02
2023-03-13T23:56:14.656Z,1.95
2023-03-13T23:58:41.880Z,1.05
